Time;durP1;ratioP1;P1;durP2;ratioP2;P2;SDS_P1;SDS_P2;PMS_P1;PMS_P2;Temp;Humidity;BMP_temperature;BMP_pressure;BME280_temperature;BME280_humidity;BME280_pressure;Samples;Min_cycle;Max_cycle;Signal;HPM_P1;HPM_P2
2023/09/05 00:00:45;;;;;;;3.92;1.60;;;13.80;99.90;;;;;;5048639;28;20081;-60
2023/09/05 00:03:11;;;;;;;5.45;2.45;;;13.80;99.90;;;;;;5056922;28;20046;-60
2023/09/05 00:05:37;;;;;;;3.28;1.75;;;13.80;99.90;;;;;;5056304;28;20521;-60
2023/09/05 00:08:03;;;;;;;3.67;1.63;;;13.80;99.90;;;;;;4989447;28;20038;-60
2023/09/05 00:10:28;;;;;;;4.40;2.13;;;13.80;99.90;;;;;;5056580;28;20544;-60
2023/09/05 00:12:54;;;;;;;5.45;2.38;;;13.80;99.90;;;;;;5055842;28;20049;-60
2023/09/05 00:15:20;;;;;;;2.58;1.52;;;13.80;99.90;;;;;;5056679;28;20053;-60
2023/09/05 00:17:46;;;;;;;4.25;1.98;;;13.80;99.90;;;;;;4989475;28;20046;-60
2023/09/05 00:20:15;;;;;;;4.35;2.00;;;13.70;99.90;;;;;;5025203;28;20053;-60
2023/09/05 00:22:42;;;;;;;4.05;1.83;;;13.70;99.90;;;;;;4988015;28;20081;-60
2023/09/05 00:25:11;;;;;;;3.40;1.90;;;13.60;99.90;;;;;;4988773;28;20062;-60
2023/09/05 00:27:39;;;;;;;4.38;2.47;;;13.70;99.90;;;;;;4970017;28;20054;-60
2023/09/05 00:30:05;;;;;;;3.03;1.98;;;13.60;99.90;;;;;;4970021;28;20491;-60
2023/09/05 00:32:32;;;;;;;4.97;1.92;;;13.60;99.90;;;;;;5056503;28;20160;-60
2023/09/05 00:34:58;;;;;;;2.72;1.60;;;13.60;99.90;;;;;;4988212;28;20050;-60
2023/09/05 00:37:24;;;;;;;3.75;1.95;;;13.60;99.90;;;;;;5055883;28;20057;-60
2023/09/05 00:39:50;;;;;;;5.22;2.08;;;13.60;99.90;;;;;;4989153;28;20042;-60
2023/09/05 00:42:17;;;;;;;3.00;1.92;;;13.60;99.90;;;;;;5055480;28;20686;-60
2023/09/05 00:44:46;;;;;;;3.75;2.00;;;13.60;99.90;;;;;;5019977;28;20047;-60
2023/09/05 00:47:13;;;;;;;5.47;2.22;;;13.70;99.90;;;;;;5073035;28;20048;-62
2023/09/05 00:49:41;;;;;;;6.28;2.08;;;13.70;99.90;;;;;;5072781;28;20040;-63
2023/09/05 00:52:09;;;;;;;3.15;1.73;;;13.70;99.90;;;;;;5072943;28;20036;-63
2023/09/05 00:54:37;;;;;;;3.95;2.00;;;13.70;99.90;;;;;;5090213;28;20472;-62
2023/09/05 00:57:03;;;;;;;3.58;1.85;;;13.70;99.90;;;;;;5015694;28;20050;-62
2023/09/05 00:59:29;;;;;;;4.20;2.05;;;13.70;99.90;;;;;;4988125;28;20247;-62
2023/09/05 01:01:55;;;;;;;4.25;1.63;;;13.70;99.90;;;;;;5055136;28;20042;-62
2023/09/05 01:04:22;;;;;;;4.22;2.40;;;13.60;99.90;;;;;;5055643;28;20050;-62
2023/09/05 01:07:03;;;;;;;4.05;2.28;;;13.60;99.90;;;;;;4988599;28;20474;-62
2023/09/05 01:10:06;;;;;;;5.30;1.90;;;13.60;99.90;;;;;;5054879;28;20070;-62
2023/09/05 01:12:32;;;;;;;5.82;2.10;;;13.50;99.90;;;;;;5055612;28;20038;-62
2023/09/05 01:14:57;;;;;;;3.70;1.85;;;13.50;99.90;;;;;;5055577;28;20042;-63
2023/09/05 01:17:23;;;;;;;3.83;2.05;;;13.50;99.90;;;;;;5055173;28;20501;-62
2023/09/05 01:19:54;;;;;;;3.38;1.80;;;13.50;99.90;;;;;;5037937;28;20699;-63
2023/09/05 01:22:57;;;;;;;4.93;1.85;;;13.40;99.90;;;;;;4994331;28;20047;-63
2023/09/05 01:25:23;;;;;;;3.40;1.77;;;13.40;99.90;;;;;;4971737;28;20192;-63
2023/09/05 01:27:49;;;;;;;7.40;2.63;;;13.30;99.90;;;;;;4980908;28;20086;-62
2023/09/05 01:30:15;;;;;;;4.55;2.22;;;13.30;99.90;;;;;;5054627;28;20121;-62
2023/09/05 01:32:43;;;;;;;6.15;2.78;;;13.30;99.90;;;;;;5055172;28;20047;-62
2023/09/05 01:35:08;;;;;;;5.25;2.67;;;13.30;99.90;;;;;;5055127;28;20050;-62
2023/09/05 01:37:34;;;;;;;3.63;1.80;;;13.30;99.90;;;;;;5054464;28;20103;-60
2023/09/05 01:40:00;;;;;;;8.35;2.33;;;13.30;99.90;;;;;;5055057;28;20050;-60
2023/09/05 01:42:25;;;;;;;4.97;2.75;;;13.20;99.90;;;;;;4987851;28;20046;-60
2023/09/05 01:44:51;;;;;;;2.65;1.42;;;13.20;99.90;;;;;;5024885;28;20055;-60
2023/09/05 01:47:17;;;;;;;5.78;2.35;;;13.20;99.90;;;;;;5090216;28;20063;-60
2023/09/05 01:49:43;;;;;;;6.05;2.22;;;13.10;99.90;;;;;;5089472;28;20043;-60
2023/09/05 01:52:08;;;;;;;2.00;1.30;;;13.00;99.90;;;;;;5054582;28;20066;-60
2023/09/05 01:54:39;;;;;;;2.35;1.35;;;12.90;99.90;;;;;;4987703;28;20459;-60
2023/09/05 01:57:05;;;;;;;6.45;3.03;;;12.90;99.90;;;;;;5054998;28;20068;-60
2023/09/05 01:59:31;;;;;;;5.07;2.47;;;12.90;99.90;;;;;;5054058;28;20478;-60
2023/09/05 02:01:57;;;;;;;3.97;2.03;;;12.90;99.90;;;;;;5054927;28;20111;-60
2023/09/05 02:04:22;;;;;;;4.25;1.70;;;13.00;99.90;;;;;;5054435;28;20053;-60
2023/09/05 02:06:48;;;;;;;5.47;2.60;;;13.00;99.90;;;;;;5054917;28;20047;-60
2023/09/05 02:09:14;;;;;;;5.68;2.45;;;13.10;99.90;;;;;;5054924;28;20119;-60
2023/09/05 02:11:40;;;;;;;7.55;2.63;;;13.10;99.90;;;;;;4986915;28;20054;-60
2023/09/05 02:14:06;;;;;;;3.92;2.13;;;13.10;99.90;;;;;;5054652;28;20088;-62
2023/09/05 02:16:33;;;;;;;4.32;2.03;;;13.10;99.90;;;;;;5055004;28;20130;-62
2023/09/05 02:18:58;;;;;;;3.65;2.25;;;13.10;99.90;;;;;;4978534;28;20102;-62
2023/09/05 02:21:24;;;;;;;3.58;2.58;;;13.10;99.90;;;;;;5054701;28;20522;-62
2023/09/05 02:23:50;;;;;;;5.25;2.28;;;13.20;99.90;;;;;;5054210;28;20057;-62
2023/09/05 02:26:16;;;;;;;5.00;2.28;;;13.20;99.90;;;;;;5053845;28;20048;-62
2023/09/05 02:28:42;;;;;;;4.47;2.47;;;13.20;99.90;;;;;;5054732;28;20039;-62
2023/09/05 02:31:08;;;;;;;4.82;2.22;;;13.20;99.90;;;;;;4987475;28;20042;-62
2023/09/05 02:33:36;;;;;;;5.75;2.20;;;13.20;99.90;;;;;;5053974;28;20042;-62
2023/09/05 02:36:08;;;;;;;5.40;1.80;;;13.20;99.90;;;;;;5018285;28;20043;-62
2023/09/05 02:38:35;;;;;;;2.83;1.77;;;13.20;99.90;;;;;;5034815;28;20046;-62
2023/09/05 02:41:00;;;;;;;4.38;2.20;;;13.20;99.90;;;;;;5033495;28;20565;-62
2023/09/05 02:43:26;;;;;;;3.25;2.22;;;13.20;99.90;;;;;;5034702;28;20129;-63
2023/09/05 02:45:52;;;;;;;12.55;2.88;;;13.30;99.90;;;;;;5067047;28;20036;-63
2023/09/05 02:48:18;;;;;;;3.75;1.98;;;13.20;99.90;;;;;;5089051;28;20036;-62
2023/09/05 02:50:44;;;;;;;4.78;2.28;;;13.30;99.90;;;;;;5089405;28;20723;-62
2023/09/05 02:53:10;;;;;;;8.02;2.67;;;13.20;99.90;;;;;;5054128;28;20556;-60
2023/09/05 02:55:43;;;;;;;3.70;1.70;;;13.20;99.90;;;;;;4986524;28;20184;-60
2023/09/05 02:58:09;;;;;;;5.53;2.10;;;13.20;99.90;;;;;;4986883;28;20493;-60
2023/09/05 03:00:35;;;;;;;4.25;2.35;;;13.20;99.90;;;;;;5054663;28;20057;-60
2023/09/05 03:03:01;;;;;;;3.28;2.15;;;13.20;99.90;;;;;;5041336;28;20516;-60
2023/09/05 03:05:27;;;;;;;3.88;2.20;;;13.20;99.90;;;;;;4990437;28;20046;-60
2023/09/05 03:07:55;;;;;;;4.28;1.98;;;13.20;99.90;;;;;;5057158;28;20145;-60
2023/09/05 03:10:21;;;;;;;9.88;2.65;;;13.20;99.90;;;;;;4990180;28;20048;-60
2023/09/05 03:12:46;;;;;;;3.67;2.03;;;13.20;99.90;;;;;;4990345;28;20034;-60
2023/09/05 03:15:18;;;;;;;3.47;1.85;;;13.20;99.90;;;;;;5053387;28;20076;-60
2023/09/05 03:17:45;;;;;;;5.25;1.92;;;13.20;99.90;;;;;;4988948;28;20050;-60
2023/09/05 03:20:11;;;;;;;4.15;2.10;;;13.30;99.90;;;;;;5023248;28;20078;-60
2023/09/05 03:22:37;;;;;;;4.30;2.60;;;13.20;99.90;;;;;;5057021;28;20121;-60
2023/09/05 03:25:03;;;;;;;3.00;1.80;;;13.20;99.90;;;;;;5057609;28;20815;-60
2023/09/05 03:27:30;;;;;;;5.88;2.30;;;13.20;99.90;;;;;;5057414;28;20544;-60
2023/09/05 03:29:55;;;;;;;2.72;1.60;;;13.20;99.90;;;;;;5057199;28;20125;-60
2023/09/05 03:32:21;;;;;;;4.53;2.35;;;13.20;99.90;;;;;;5057686;28;20453;-60
2023/09/05 03:34:48;;;;;;;5.38;2.45;;;13.20;99.90;;;;;;5057416;28;20108;-60
2023/09/05 03:37:15;;;;;;;3.03;1.25;;;13.20;99.90;;;;;;5057137;28;20699;-60
2023/09/05 03:39:42;;;;;;;3.67;1.63;;;13.20;99.90;;;;;;4989973;28;20496;-60
2023/09/05 03:42:08;;;;;;;4.65;2.08;;;13.20;99.90;;;;;;5057511;28;20085;-59
2023/09/05 03:44:33;;;;;;;4.68;1.60;;;13.20;99.90;;;;;;5073420;28;20055;-60
2023/09/05 03:46:59;;;;;;;6.00;1.98;;;13.20;99.90;;;;;;5092211;28;20040;-60
2023/09/05 03:49:25;;;;;;;4.68;2.15;;;13.20;99.90;;;;;;5029354;28;20843;-60
2023/09/05 03:51:52;;;;;;;4.03;1.77;;;13.10;99.90;;;;;;5056715;28;21534;-60
2023/09/05 03:54:18;;;;;;;4.03;1.92;;;13.20;99.90;;;;;;4989600;28;20359;-60
2023/09/05 03:56:44;;;;;;;2.83;1.60;;;13.20;99.90;;;;;;5063174;28;20114;-59
2023/09/05 03:59:09;;;;;;;4.60;1.58;;;13.20;99.90;;;;;;5045324;28;20055;-60
2023/09/05 04:01:36;;;;;;;8.57;3.05;;;13.20;99.90;;;;;;4970057;28;20043;-60
2023/09/05 04:04:05;;;;;;;3.75;1.67;;;13.20;99.90;;;;;;4969558;28;20082;-60
2023/09/05 04:06:30;;;;;;;5.38;2.38;;;13.20;99.90;;;;;;4968619;28;20039;-60
2023/09/05 04:08:56;;;;;;;4.85;2.38;;;13.20;99.90;;;;;;4968661;28;20047;-60
2023/09/05 04:11:22;;;;;;;3.50;1.75;;;13.20;99.90;;;;;;4973757;28;20038;-60
2023/09/05 04:13:47;;;;;;;3.63;1.95;;;13.20;99.90;;;;;;5056388;28;20038;-60
2023/09/05 04:16:13;;;;;;;6.53;2.10;;;13.20;99.90;;;;;;5056305;28;20125;-60
2023/09/05 04:18:39;;;;;;;6.05;2.40;;;13.20;99.90;;;;;;5055824;28;20101;-60
2023/09/05 04:21:05;;;;;;;5.65;2.05;;;13.10;99.90;;;;;;5056546;28;20081;-60
2023/09/05 04:23:31;;;;;;;4.63;2.10;;;13.10;99.90;;;;;;4988715;28;20050;-60
2023/09/05 04:25:59;;;;;;;5.63;2.17;;;13.00;99.90;;;;;;4988307;28;20118;-60
2023/09/05 04:28:26;;;;;;;4.65;1.90;;;12.90;99.90;;;;;;5056678;28;20050;-60
2023/09/05 04:30:55;;;;;;;5.68;2.78;;;12.90;99.90;;;;;;4989028;28;20042;-60
2023/09/05 04:33:32;;;;;;;3.93;1.40;;;12.80;99.90;;;;;;5055787;28;20046;-60
2023/09/05 04:35:58;;;;;;;5.22;2.38;;;12.80;99.90;;;;;;5073015;28;20288;-60
2023/09/05 04:38:24;;;;;;;4.10;1.83;;;12.80;99.90;;;;;;5055565;28;20061;-60
2023/09/05 04:40:50;;;;;;;5.60;1.88;;;12.80;99.90;;;;;;4988873;28;20038;-59
2023/09/05 04:43:15;;;;;;;3.20;1.90;;;12.80;99.90;;;;;;5056233;28;20491;-60
2023/09/05 04:45:41;;;;;;;3.67;2.33;;;12.80;99.90;;;;;;5055322;28;20042;-60
2023/09/05 04:48:07;;;;;;;3.33;1.92;;;12.80;99.90;;;;;;4988686;28;20458;-60
2023/09/05 04:50:33;;;;;;;5.45;2.03;;;12.80;99.90;;;;;;4989072;28;20035;-60
2023/09/05 04:52:59;;;;;;;2.70;1.75;;;12.80;99.90;;;;;;4987230;28;20547;-60
2023/09/05 04:55:25;;;;;;;4.35;2.10;;;12.80;99.90;;;;;;4987690;28;20375;-60
2023/09/05 04:57:51;;;;;;;4.10;2.13;;;12.90;99.90;;;;;;4971304;28;20050;-60
2023/09/05 05:00:18;;;;;;;4.35;2.28;;;12.90;99.90;;;;;;4987480;28;20042;-60
2023/09/05 05:02:44;;;;;;;4.43;2.10;;;12.90;99.90;;;;;;4988632;28;20471;-60
2023/09/05 05:05:11;;;;;;;5.45;2.05;;;12.90;99.90;;;;;;5055886;28;20058;-60
2023/09/05 05:07:41;;;;;;;2.85;1.52;;;13.00;99.90;;;;;;4984595;28;20486;-60
2023/09/05 05:10:07;;;;;;;5.25;2.33;;;13.00;99.90;;;;;;5055261;28;20043;-60
2023/09/05 05:12:33;;;;;;;3.13;1.77;;;13.10;99.90;;;;;;4988319;28;20051;-60
2023/09/05 05:14:59;;;;;;;2.92;1.63;;;13.10;99.90;;;;;;5055158;28;20119;-60
2023/09/05 05:17:25;;;;;;;4.55;2.08;;;13.10;99.90;;;;;;4988450;28;20049;-59
2023/09/05 05:19:51;;;;;;;4.68;2.38;;;13.10;99.90;;;;;;5038859;28;20085;-59
2023/09/05 05:22:16;;;;;;;4.18;2.20;;;13.10;99.90;;;;;;5054921;28;20074;-59
2023/09/05 05:24:42;;;;;;;2.35;1.83;;;13.10;99.90;;;;;;5054855;28;20057;-59
2023/09/05 05:27:08;;;;;;;4.97;2.42;;;13.10;99.90;;;;;;4988061;28;20050;-60
2023/09/05 05:29:34;;;;;;;5.88;1.88;;;13.20;99.90;;;;;;5054617;28;20035;-60
2023/09/05 05:32:00;;;;;;;5.60;2.25;;;13.20;99.90;;;;;;5038436;28;20046;-60
2023/09/05 05:34:26;;;;;;;4.00;1.77;;;13.30;99.90;;;;;;4987465;28;20042;-60
2023/09/05 05:36:52;;;;;;;4.68;2.08;;;13.50;99.90;;;;;;4988163;28;20192;-60
2023/09/05 05:39:22;;;;;;;4.07;2.30;;;13.50;99.90;;;;;;4988251;28;20497;-60
2023/09/05 05:41:48;;;;;;;6.10;2.60;;;13.70;99.90;;;;;;4986312;28;20077;-60
2023/09/05 05:44:14;;;;;;;4.68;2.22;;;13.80;99.90;;;;;;4987524;28;20042;-60
2023/09/05 05:46:41;;;;;;;5.18;2.53;;;13.90;99.90;;;;;;5038176;28;20042;-59
2023/09/05 05:49:08;;;;;;;6.88;2.47;;;14.00;99.90;;;;;;4987561;28;20042;-60
2023/09/05 05:51:34;;;;;;;3.70;1.83;;;14.10;99.90;;;;;;4987621;28;20077;-60
2023/09/05 05:54:00;;;;;;;4.07;2.10;;;14.20;99.90;;;;;;4986995;28;20042;-60
2023/09/05 05:56:26;;;;;;;4.20;2.78;;;14.30;99.90;;;;;;4986871;28;20438;-60
2023/09/05 05:58:52;;;;;;;5.57;2.38;;;14.40;99.90;;;;;;4986228;28;20042;-60
2023/09/05 06:01:20;;;;;;;3.83;2.35;;;14.40;99.90;;;;;;5054898;28;20479;-60
2023/09/05 06:03:46;;;;;;;4.40;2.60;;;14.40;99.90;;;;;;4983649;28;20042;-60
2023/09/05 06:06:13;;;;;;;3.08;1.90;;;14.50;99.90;;;;;;5037956;28;20048;-60
2023/09/05 06:08:39;;;;;;;4.90;2.40;;;14.60;99.90;;;;;;5054746;28;20043;-60
2023/09/05 06:11:04;;;;;;;3.15;1.77;;;14.70;99.90;;;;;;4986922;28;20041;-60
2023/09/05 06:13:30;;;;;;;7.10;2.92;;;14.80;99.90;;;;;;4987707;28;20113;-60
2023/09/05 06:15:56;;;;;;;4.82;2.13;;;14.90;99.90;;;;;;5054621;28;20046;-60
2023/09/05 06:18:24;;;;;;;5.15;2.40;;;15.00;99.90;;;;;;5054069;28;20078;-60
2023/09/05 06:20:49;;;;;;;7.85;2.97;;;15.20;99.90;;;;;;5054767;28;20510;-60
2023/09/05 06:23:15;;;;;;;5.30;2.85;;;15.40;99.90;;;;;;4986990;28;20050;-60
2023/09/05 06:25:41;;;;;;;6.35;2.10;;;15.70;99.90;;;;;;5037675;28;20050;-60
2023/09/05 06:28:07;;;;;;;4.55;2.10;;;16.10;99.90;;;;;;5054532;28;20046;-60
2023/09/05 06:30:33;;;;;;;5.43;2.72;;;16.50;99.90;;;;;;5054054;28;20042;-60
2023/09/05 06:32:58;;;;;;;4.47;2.05;;;16.90;99.90;;;;;;5054555;28;20043;-60
2023/09/05 06:35:24;;;;;;;4.10;1.70;;;17.30;99.90;;;;;;4988574;28;20113;-60
2023/09/05 06:37:56;;;;;;;3.58;1.67;;;17.70;99.90;;;;;;5057504;28;20042;-60
2023/09/05 06:40:23;;;;;;;3.33;1.63;;;18.10;99.90;;;;;;5054327;28;20043;-60
2023/09/05 06:42:51;;;;;;;3.05;1.60;;;18.30;99.90;;;;;;5074489;28;20436;-61
2023/09/05 06:45:17;;;;;;;3.08;1.75;;;18.30;99.90;;;;;;5046836;28;20487;-60
2023/09/05 06:47:43;;;;;;;4.15;1.67;;;18.20;99.90;;;;;;5070468;28;20077;-60
2023/09/05 06:50:10;;;;;;;4.13;2.08;;;18.10;99.90;;;;;;5057889;28;20470;-60
2023/09/05 06:52:36;;;;;;;2.80;1.55;;;18.00;99.90;;;;;;5057479;28;20504;-60
2023/09/05 06:55:02;;;;;;;2.70;1.60;;;17.90;99.90;;;;;;4990519;28;20034;-60
2023/09/05 06:57:27;;;;;;;3.67;1.63;;;17.90;99.90;;;;;;5058274;28;20399;-60
2023/09/05 06:59:53;;;;;;;2.85;1.45;;;18.00;99.90;;;;;;5012367;28;20048;-60
2023/09/05 07:02:19;;;;;;;3.42;1.63;;;18.10;99.90;;;;;;4990222;28;20129;-61
2023/09/05 07:04:45;;;;;;;3.22;1.50;;;18.10;99.90;;;;;;5057573;28;20110;-60
2023/09/05 07:07:11;;;;;;;2.38;1.08;;;18.20;99.90;;;;;;5057108;28;20144;-61
2023/09/05 07:09:37;;;;;;;2.60;1.42;;;18.20;99.90;;;;;;5055693;28;20172;-60
2023/09/05 07:12:04;;;;;;;3.40;1.60;;;18.30;99.90;;;;;;4977522;28;20038;-61
2023/09/05 07:14:30;;;;;;;3.65;1.50;;;18.30;99.90;;;;;;5036512;28;20044;-60
2023/09/05 07:16:57;;;;;;;5.93;1.80;;;18.40;99.90;;;;;;5023028;28;20040;-60
2023/09/05 07:19:23;;;;;;;3.65;1.17;;;18.50;99.90;;;;;;5074545;28;20063;-61
2023/09/05 07:21:50;;;;;;;1.80;1.10;;;18.60;99.90;;;;;;5092506;28;20036;-61
2023/09/05 07:24:16;;;;;;;3.08;1.60;;;18.70;99.90;;;;;;5073912;28;20056;-60
2023/09/05 07:26:44;;;;;;;3.45;1.05;;;18.80;99.90;;;;;;5092189;28;20434;-61
2023/09/05 07:29:11;;;;;;;2.88;1.00;;;18.90;99.90;;;;;;5057500;28;20406;-60
2023/09/05 07:31:37;;;;;;;2.88;1.23;;;19.00;99.90;;;;;;5057596;28;20038;-60
2023/09/05 07:34:03;;;;;;;3.08;1.17;;;19.10;99.90;;;;;;5056723;28;20061;-60
2023/09/05 07:36:31;;;;;;;3.03;0.90;;;19.30;99.90;;;;;;4989786;28;20117;-60
2023/09/05 07:38:57;;;;;;;2.22;1.23;;;19.40;99.90;;;;;;5023550;28;20050;-61
2023/09/05 07:41:24;;;;;;;2.20;1.10;;;19.50;99.90;;;;;;5038621;28;20042;-60
2023/09/05 07:43:50;;;;;;;5.03;1.70;;;19.60;99.90;;;;;;5055937;28;20050;-60
2023/09/05 07:46:16;;;;;;;3.90;1.42;;;19.70;99.90;;;;;;5000112;28;20077;-60
2023/09/05 07:48:42;;;;;;;3.90;1.50;;;19.70;99.90;;;;;;4987239;28;20490;-60
2023/09/05 07:51:08;;;;;;;3.22;1.15;;;19.80;99.90;;;;;;4988170;28;20118;-61
2023/09/05 07:53:35;;;;;;;1.83;1.00;;;19.90;99.90;;;;;;5055208;28;20080;-60
2023/09/05 07:56:02;;;;;;;3.10;1.95;;;19.90;99.90;;;;;;5055308;28;20054;-60
2023/09/05 07:58:28;;;;;;;2.30;1.20;;;20.00;99.90;;;;;;5055622;28;20053;-60
2023/09/05 08:00:54;;;;;;;2.40;1.27;;;20.20;99.90;;;;;;5054947;28;20050;-60
2023/09/05 08:03:21;;;;;;;2.97;1.48;;;20.30;99.90;;;;;;5054925;28;20689;-59
2023/09/05 08:05:50;;;;;;;4.68;1.00;;;20.50;99.90;;;;;;4988115;28;20043;-61
2023/09/05 08:08:17;;;;;;;2.45;1.15;;;21.00;99.90;;;;;;5055361;28;20582;-61
2023/09/05 08:10:43;;;;;;;2.25;1.10;;;21.60;99.90;;;;;;5055344;28;20206;-61
2023/09/05 08:13:14;;;;;;;1.85;0.85;;;22.30;99.90;;;;;;4988122;28;20039;-60
2023/09/05 08:16:34;;;;;;;2.97;1.20;;;22.90;99.90;;;;;;4987745;28;20122;-61
2023/09/05 08:19:00;;;;;;;2.08;1.17;;;23.70;99.90;;;;;;4988048;28;20056;-60
2023/09/05 08:21:26;;;;;;;2.50;1.10;;;24.30;99.90;;;;;;4987693;28;20034;-61
2023/09/05 08:23:52;;;;;;;1.73;0.95;;;24.80;99.90;;;;;;5054289;28;20498;-61
2023/09/05 08:26:18;;;;;;;2.05;0.70;;;25.30;99.90;;;;;;5054584;28;20057;-61
2023/09/05 08:28:45;;;;;;;2.47;0.75;;;25.70;99.90;;;;;;4987660;28;20122;-61
2023/09/05 08:31:12;;;;;;;1.45;0.68;;;26.10;99.90;;;;;;5054162;28;20485;-61
2023/09/05 08:33:38;;;;;;;1.40;0.70;;;26.30;99.90;;;;;;5055291;28;20042;-61
2023/09/05 08:36:05;;;;;;;1.50;0.57;;;26.60;99.90;;;;;;5038564;28;20049;-62
2023/09/05 08:38:31;;;;;;;1.48;0.70;;;27.00;99.90;;;;;;4982242;28;20038;-62
2023/09/05 08:41:02;;;;;;;1.45;0.60;;;27.30;99.90;;;;;;4987529;28;20126;-61
2023/09/05 08:43:28;;;;;;;3.13;0.80;;;27.70;99.90;;;;;;5036497;28;20141;-62
2023/09/05 08:45:55;;;;;;;1.80;0.90;;;28.10;99.90;;;;;;5035743;28;20042;-62
2023/09/05 08:48:21;;;;;;;2.40;0.95;;;28.50;99.90;;;;;;4988398;28;20043;-62
2023/09/05 08:50:48;;;;;;;1.58;0.73;;;28.90;99.90;;;;;;4988094;28;20039;-61
2023/09/05 08:53:18;;;;;;;1.92;0.85;;;29.10;99.90;;;;;;5068356;28;20415;-62
2023/09/05 08:55:45;;;;;;;1.67;0.90;;;29.30;99.90;;;;;;5046237;28;20494;-62
2023/09/05 08:58:17;;;;;;;2.05;0.60;;;29.60;99.90;;;;;;5054679;28;20039;-62
2023/09/05 09:00:46;;;;;;;1.05;0.60;;;29.70;99.90;;;;;;4988011;28;20121;-62
2023/09/05 09:03:11;;;;;;;1.73;0.77;;;29.90;99.90;;;;;;5055670;28;20363;-62
2023/09/05 09:05:37;;;;;;;1.83;0.77;;;30.20;99.90;;;;;;4987712;28;20046;-62
2023/09/05 09:08:04;;;;;;;1.27;0.55;;;30.30;99.90;;;;;;5055458;28;20030;-62
2023/09/05 09:10:30;;;;;;;1.10;0.60;;;30.50;99.90;;;;;;4988300;28;20042;-62
2023/09/05 09:13:17;;;;;;;1.00;0.40;;;30.70;99.90;;;;;;4987399;28;20125;-62
2023/09/05 09:15:45;;;;;;;1.03;0.63;;;30.90;99.90;;;;;;4987456;28;20459;-62
2023/09/05 09:18:12;;;;;;;1.52;0.75;;;31.00;99.90;;;;;;5054209;28;20078;-62
2023/09/05 09:20:45;;;;;;;1.50;0.60;;;30.90;99.90;;;;;;5054268;28;20046;-62
2023/09/05 09:23:11;;;;;;;1.98;0.60;;;31.00;99.90;;;;;;5037060;28;20474;-63
2023/09/05 09:25:50;;;;;;;1.50;0.60;;;31.10;99.90;;;;;;4986494;28;20543;-62
2023/09/05 09:28:23;;;;;;;0.57;0.38;;;31.40;99.60;;;;;;5054025;28;20110;-62
2023/09/05 09:31:01;;;;;;;0.82;0.50;;;31.60;97.50;;;;;;5054407;28;20613;-62
2023/09/05 09:33:29;;;;;;;2.78;0.70;;;31.90;98.10;;;;;;5050427;28;20083;-62
2023/09/05 09:36:11;;;;;;;2.38;0.40;;;32.10;96.60;;;;;;5037644;28;20425;-62
2023/09/05 09:38:38;;;;;;;1.70;0.60;;;32.30;95.80;;;;;;4987158;28;20042;-61
2023/09/05 09:41:06;;;;;;;1.02;0.50;;;32.40;95.90;;;;;;4986420;28;20103;-62
2023/09/05 09:43:38;;;;;;;1.23;0.50;;;32.20;93.80;;;;;;4986587;28;20100;-62
2023/09/05 09:46:08;;;;;;;1.17;0.30;;;32.20;93.90;;;;;;4986996;28;20038;-62
2023/09/05 09:48:36;;;;;;;0.95;0.50;;;32.30;92.80;;;;;;5053161;28;20046;-63
2023/09/05 09:51:07;;;;;;;1.05;0.50;;;32.20;91.40;;;;;;5053864;28;20042;-62
2023/09/05 09:53:38;;;;;;;0.98;0.50;;;32.20;91.80;;;;;;5052950;28;20526;-63
2023/09/05 09:56:11;;;;;;;1.58;0.50;;;32.30;89.20;;;;;;5053326;28;20692;-62
2023/09/05 09:58:44;;;;;;;1.33;0.52;;;32.30;81.70;;;;;;4986769;28;20052;-63
2023/09/05 10:01:13;;;;;;;1.23;0.57;;;32.10;84.90;;;;;;5053033;28;20062;-61
2023/09/05 10:03:41;;;;;;;1.63;0.60;;;32.10;88.20;;;;;;5051108;28;20050;-61
2023/09/05 10:06:08;;;;;;;0.97;0.53;;;32.00;82.00;;;;;;4986976;28;20185;-61
2023/09/05 10:08:35;;;;;;;1.20;0.50;;;31.90;81.70;;;;;;4984846;28;20099;-60
2023/09/05 10:11:02;;;;;;;1.05;0.43;;;31.80;81.20;;;;;;4985323;28;20490;-63
2023/09/05 10:13:33;;;;;;;1.17;0.60;;;31.70;80.20;;;;;;5036941;28;20045;-62
2023/09/05 10:16:01;;;;;;;1.63;0.60;;;31.70;80.40;;;;;;5053157;28;20042;-61
2023/09/05 10:18:30;;;;;;;0.90;0.50;;;31.80;80.30;;;;;;5052081;28;20064;-61
2023/09/05 10:20:58;;;;;;;1.10;0.60;;;32.00;80.00;;;;;;4986373;28;20038;-60
2023/09/05 10:23:25;;;;;;;1.23;0.50;;;31.90;78.90;;;;;;5052745;28;20055;-63
2023/09/05 10:25:52;;;;;;;1.33;0.60;;;31.90;79.10;;;;;;5036848;28;20050;-61
2023/09/05 10:28:18;;;;;;;1.23;0.50;;;31.90;76.50;;;;;;4985878;28;20382;-60
2023/09/05 10:30:50;;;;;;;2.28;0.60;;;31.80;77.20;;;;;;4983081;28;20042;-61
2023/09/05 10:33:17;;;;;;;1.25;0.57;;;31.80;77.40;;;;;;4986391;28;20409;-61
2023/09/05 10:35:45;;;;;;;0.77;0.30;;;31.80;77.10;;;;;;4985566;28;20045;-61
2023/09/05 10:38:13;;;;;;;;;;;31.80;77.40;;;;;;5054065;28;20486;-62
2023/09/05 10:40:39;;;;;;;0.70;0.50;;;31.90;76.80;;;;;;4986336;28;19924;-62
2023/09/05 10:43:08;;;;;;;1.30;0.50;;;31.90;75.60;;;;;;5035072;28;20121;-62
2023/09/05 10:45:36;;;;;;;1.23;0.60;;;31.80;76.00;;;;;;5053535;28;20137;-62
2023/09/05 10:48:15;;;;;;;2.70;0.90;;;31.90;76.50;;;;;;5053389;28;20042;-61
2023/09/05 10:51:10;;;;;;;0.68;0.32;;;32.00;75.00;;;;;;5052670;28;20061;-61
2023/09/05 10:53:41;;;;;;;1.45;0.73;;;32.00;70.80;;;;;;5053109;28;20050;-62
2023/09/05 10:56:36;;;;;;;0.68;0.40;;;32.00;75.40;;;;;;5053262;28;20050;-62
2023/09/05 10:59:02;;;;;;;0.73;0.40;;;32.00;73.00;;;;;;4985613;28;20593;-61
2023/09/05 11:01:31;;;;;;;1.38;0.80;;;32.00;74.10;;;;;;5053363;28;20053;-62
2023/09/05 11:04:08;;;;;;;1.00;0.52;;;31.80;74.20;;;;;;4985448;28;20759;-61
2023/09/05 11:06:34;;;;;;;1.95;0.47;;;31.60;74.50;;;;;;4985801;28;20042;-69
2023/09/05 11:09:07;;;;;;;1.20;0.50;;;31.20;75.40;;;;;;4986110;28;20680;-68
2023/09/05 11:11:37;;;;;;;3.10;0.40;;;31.10;75.10;;;;;;5053102;28;20038;-70
2023/09/05 11:14:09;;;;;;;0.77;0.30;;;31.10;74.50;;;;;;5054172;28;20123;-67
2023/09/05 11:16:51;;;;;;;0.98;0.55;;;31.20;75.60;;;;;;5054378;28;20065;-67
2023/09/05 11:19:40;;;;;;;0.88;0.57;;;31.30;74.10;;;;;;5053691;28;20039;-67
2023/09/05 11:22:10;;;;;;;0.88;0.50;;;31.20;74.70;;;;;;5054933;28;20094;-67
2023/09/05 11:24:36;;;;;;;0.32;0.20;;;31.20;76.00;;;;;;5056388;28;20082;-69
2023/09/05 11:27:01;;;;;;;1.40;0.40;;;31.20;75.40;;;;;;5042917;28;20077;-67
2023/09/05 11:29:28;;;;;;;0.60;0.30;;;31.00;75.40;;;;;;5054594;28;20100;-66
2023/09/05 11:32:00;;;;;;;1.48;0.60;;;30.70;76.00;;;;;;4970242;28;20049;-66
2023/09/05 11:34:27;;;;;;;1.65;0.57;;;30.50;75.40;;;;;;5054291;28;20051;-69
2023/09/05 11:36:53;;;;;;;0.90;0.40;;;30.30;76.20;;;;;;5054252;28;20054;-67
2023/09/05 11:39:27;;;;;;;2.25;0.50;;;30.30;76.20;;;;;;5037413;28;20498;-68
2023/09/05 11:41:55;;;;;;;1.67;0.52;;;30.40;75.80;;;;;;5010177;28;20046;-66
2023/09/05 11:44:30;;;;;;;1.58;0.85;;;30.40;76.60;;;;;;4972960;28;20623;-68
2023/09/05 11:46:58;;;;;;;1.52;0.65;;;30.40;77.40;;;;;;4988465;28;20065;-69
2023/09/05 11:49:24;;;;;;;0.70;0.50;;;30.40;77.10;;;;;;5032909;28;20507;-67
2023/09/05 11:51:52;;;;;;;1.20;0.52;;;30.30;76.80;;;;;;4969194;28;20072;-70
2023/09/05 11:54:18;;;;;;;1.30;0.82;;;30.20;76.90;;;;;;5037305;28;20053;-68
2023/09/05 11:56:44;;;;;;;0.70;0.40;;;30.10;77.00;;;;;;4970907;28;20039;-67
2023/09/05 11:59:10;;;;;;;1.35;0.45;;;29.90;77.50;;;;;;4975089;28;20081;-68
2023/09/05 12:01:35;;;;;;;1.30;0.70;;;29.80;77.40;;;;;;5056906;28;20057;-68
2023/09/05 12:04:06;;;;;;;1.15;0.52;;;29.70;77.70;;;;;;4990052;28;20046;-68
2023/09/05 12:06:34;;;;;;;0.82;0.45;;;29.70;77.50;;;;;;4989377;28;20061;-67
2023/09/05 12:09:00;;;;;;;;;;;29.60;78.20;;;;;;4988890;28;20520;-68
2023/09/05 12:11:26;;;;;;;1.33;0.60;;;29.60;80.00;;;;;;4988457;28;19917;-68
2023/09/05 12:13:56;;;;;;;1.02;0.60;;;29.70;79.60;;;;;;4988082;28;20386;-69
2023/09/05 12:16:23;;;;;;;0.60;0.32;;;30.00;79.40;;;;;;4989494;28;20544;-66
2023/09/05 12:19:00;;;;;;;1.10;0.35;;;30.10;79.60;;;;;;4989778;28;20038;-66
2023/09/05 12:21:40;;;;;;;0.43;0.40;;;30.00;78.30;;;;;;5056160;28;20595;-66
2023/09/05 12:24:20;;;;;;;1.10;0.40;;;29.90;78.10;;;;;;4969695;28;20059;-68
2023/09/05 12:26:46;;;;;;;1.38;0.50;;;29.70;79.00;;;;;;4970195;28;20089;-66
2023/09/05 12:29:12;;;;;;;1.70;0.50;;;29.70;79.60;;;;;;5036388;28;20047;-66
2023/09/05 12:31:38;;;;;;;1.45;0.50;;;29.70;79.20;;;;;;5020625;28;20052;-69
2023/09/05 12:34:04;;;;;;;1.23;0.45;;;29.80;79.00;;;;;;5036277;28;20049;-69
2023/09/05 12:36:30;;;;;;;0.68;0.30;;;29.90;79.40;;;;;;4985798;28;20089;-68
2023/09/05 12:38:55;;;;;;;1.55;0.52;;;29.90;78.80;;;;;;4968962;28;20442;-68
2023/09/05 12:41:21;;;;;;;0.65;0.30;;;29.80;78.70;;;;;;4999845;28;20440;-71
2023/09/05 12:43:47;;;;;;;3.15;0.50;;;29.80;79.30;;;;;;5056329;28;20117;-68
2023/09/05 12:46:13;;;;;;;2.45;0.60;;;30.00;79.60;;;;;;4998712;28;20106;-69
2023/09/05 12:48:38;;;;;;;2.08;0.57;;;30.20;79.40;;;;;;5075640;28;20045;-68
2023/09/05 12:51:04;;;;;;;0.40;0.20;;;30.10;79.30;;;;;;5076923;28;20148;-70